sensor_id;sensor_type;location;lat;lon;timestamp;P1;durP1;ratioP1;P2;durP2;ratioP2
79414;SDS011;68864;44.972;19.612;2024-02-28T00:00:53;15.65;;;8.57;;
79414;SDS011;68864;44.972;19.612;2024-02-28T00:03:20;17.63;;;6.95;;
79414;SDS011;68864;44.972;19.612;2024-02-28T00:05:48;15.43;;;7.20;;
79414;SDS011;68864;44.972;19.612;2024-02-28T00:08:15;14.88;;;8.18;;
79414;SDS011;68864;44.972;19.612;2024-02-28T00:10:44;16.77;;;7.78;;
79414;SDS011;68864;44.972;19.612;2024-02-28T00:15:39;16.27;;;6.80;;
79414;SDS011;68864;44.972;19.612;2024-02-28T00:18:07;13.45;;;7.70;;
79414;SDS011;68864;44.972;19.612;2024-02-28T00:20:33;18.70;;;7.00;;
79414;SDS011;68864;44.972;19.612;2024-02-28T00:23:00;14.15;;;8.15;;
79414;SDS011;68864;44.972;19.612;2024-02-28T00:25:27;17.15;;;7.43;;
79414;SDS011;68864;44.972;19.612;2024-02-28T00:27:54;15.20;;;7.05;;
79414;SDS011;68864;44.972;19.612;2024-02-28T00:30:21;21.35;;;7.35;;
79414;SDS011;68864;44.972;19.612;2024-02-28T00:32:49;17.98;;;7.72;;
79414;SDS011;68864;44.972;19.612;2024-02-28T00:35:16;17.70;;;7.40;;
79414;SDS011;68864;44.972;19.612;2024-02-28T00:37:43;21.08;;;9.98;;
79414;SDS011;68864;44.972;19.612;2024-02-28T00:40:09;19.98;;;8.90;;
79414;SDS011;68864;44.972;19.612;2024-02-28T00:42:37;22.27;;;10.68;;
79414;SDS011;68864;44.972;19.612;2024-02-28T00:45:04;21.00;;;9.30;;
79414;SDS011;68864;44.972;19.612;2024-02-28T00:47:31;17.52;;;8.35;;
79414;SDS011;68864;44.972;19.612;2024-02-28T00:50:00;18.10;;;8.13;;
79414;SDS011;68864;44.972;19.612;2024-02-28T00:52:28;16.00;;;8.18;;
79414;SDS011;68864;44.972;19.612;2024-02-28T00:54:57;18.30;;;7.78;;
79414;SDS011;68864;44.972;19.612;2024-02-28T00:57:24;17.45;;;6.57;;
79414;SDS011;68864;44.972;19.612;2024-02-28T00:59:51;16.70;;;7.90;;
79414;SDS011;68864;44.972;19.612;2024-02-28T01:02:19;14.05;;;6.88;;
79414;SDS011;68864;44.972;19.612;2024-02-28T01:04:46;13.63;;;6.95;;
79414;SDS011;68864;44.972;19.612;2024-02-28T01:07:15;15.10;;;6.63;;
79414;SDS011;68864;44.972;19.612;2024-02-28T01:09:42;14.82;;;7.60;;
79414;SDS011;68864;44.972;19.612;2024-02-28T01:12:09;14.90;;;7.03;;
79414;SDS011;68864;44.972;19.612;2024-02-28T01:14:36;18.20;;;8.45;;
79414;SDS011;68864;44.972;19.612;2024-02-28T01:17:03;20.15;;;7.95;;
79414;SDS011;68864;44.972;19.612;2024-02-28T01:19:30;19.95;;;9.25;;
79414;SDS011;68864;44.972;19.612;2024-02-28T01:24:26;17.45;;;8.65;;
79414;SDS011;68864;44.972;19.612;2024-02-28T01:26:52;16.60;;;8.10;;
79414;SDS011;68864;44.972;19.612;2024-02-28T01:29:19;16.52;;;6.63;;
79414;SDS011;68864;44.972;19.612;2024-02-28T01:31:46;16.38;;;7.70;;
79414;SDS011;68864;44.972;19.612;2024-02-28T01:34:13;19.35;;;7.88;;
79414;SDS011;68864;44.972;19.612;2024-02-28T01:36:40;23.98;;;6.88;;
79414;SDS011;68864;44.972;19.612;2024-02-28T01:39:07;14.23;;;8.02;;
79414;SDS011;68864;44.972;19.612;2024-02-28T01:41:36;14.32;;;6.68;;
79414;SDS011;68864;44.972;19.612;2024-02-28T01:44:02;15.13;;;6.45;;
79414;SDS011;68864;44.972;19.612;2024-02-28T01:46:30;16.80;;;6.43;;
79414;SDS011;68864;44.972;19.612;2024-02-28T01:48:58;14.30;;;6.70;;
79414;SDS011;68864;44.972;19.612;2024-02-28T01:51:25;15.05;;;6.20;;
79414;SDS011;68864;44.972;19.612;2024-02-28T01:53:54;19.27;;;7.05;;
79414;SDS011;68864;44.972;19.612;2024-02-28T01:56:22;13.70;;;6.43;;
79414;SDS011;68864;44.972;19.612;2024-02-28T01:58:51;16.33;;;7.30;;
79414;SDS011;68864;44.972;19.612;2024-02-28T02:01:20;17.83;;;6.43;;
79414;SDS011;68864;44.972;19.612;2024-02-28T02:03:47;15.80;;;6.75;;
79414;SDS011;68864;44.972;19.612;2024-02-28T02:06:14;19.13;;;8.68;;
79414;SDS011;68864;44.972;19.612;2024-02-28T02:08:41;23.90;;;9.98;;
79414;SDS011;68864;44.972;19.612;2024-02-28T02:11:08;19.98;;;7.72;;
79414;SDS011;68864;44.972;19.612;2024-02-28T02:13:35;22.30;;;8.43;;
79414;SDS011;68864;44.972;19.612;2024-02-28T02:16:14;27.55;;;10.63;;
79414;SDS011;68864;44.972;19.612;2024-02-28T02:18:41;23.35;;;8.77;;
79414;SDS011;68864;44.972;19.612;2024-02-28T02:21:08;19.67;;;7.45;;
79414;SDS011;68864;44.972;19.612;2024-02-28T02:23:39;20.58;;;7.47;;
79414;SDS011;68864;44.972;19.612;2024-02-28T02:26:06;16.52;;;6.20;;
79414;SDS011;68864;44.972;19.612;2024-02-28T02:28:33;17.10;;;5.93;;
79414;SDS011;68864;44.972;19.612;2024-02-28T02:31:00;14.55;;;5.60;;
79414;SDS011;68864;44.972;19.612;2024-02-28T02:33:27;16.98;;;6.15;;
79414;SDS011;68864;44.972;19.612;2024-02-28T02:35:54;19.80;;;5.68;;
79414;SDS011;68864;44.972;19.612;2024-02-28T02:38:21;26.75;;;9.00;;
79414;SDS011;68864;44.972;19.612;2024-02-28T02:40:49;16.55;;;7.18;;
79414;SDS011;68864;44.972;19.612;2024-02-28T02:43:17;16.88;;;7.25;;
79414;SDS011;68864;44.972;19.612;2024-02-28T02:45:44;18.52;;;7.05;;
79414;SDS011;68864;44.972;19.612;2024-02-28T02:48:11;21.15;;;6.75;;
79414;SDS011;68864;44.972;19.612;2024-02-28T02:50:38;15.57;;;5.57;;
79414;SDS011;68864;44.972;19.612;2024-02-28T02:53:06;15.27;;;6.22;;
79414;SDS011;68864;44.972;19.612;2024-02-28T02:55:35;12.05;;;6.50;;
79414;SDS011;68864;44.972;19.612;2024-02-28T02:58:04;13.75;;;5.82;;
79414;SDS011;68864;44.972;19.612;2024-02-28T03:00:31;17.50;;;7.75;;
79414;SDS011;68864;44.972;19.612;2024-02-28T03:02:58;14.60;;;6.63;;
79414;SDS011;68864;44.972;19.612;2024-02-28T03:05:24;14.85;;;6.50;;
79414;SDS011;68864;44.972;19.612;2024-02-28T03:07:51;21.88;;;6.63;;
79414;SDS011;68864;44.972;19.612;2024-02-28T03:10:19;15.13;;;6.47;;
79414;SDS011;68864;44.972;19.612;2024-02-28T03:12:46;19.83;;;7.63;;
79414;SDS011;68864;44.972;19.612;2024-02-28T03:15:14;15.38;;;5.93;;
79414;SDS011;68864;44.972;19.612;2024-02-28T03:17:41;18.63;;;7.05;;
79414;SDS011;68864;44.972;19.612;2024-02-28T03:20:08;17.90;;;5.80;;
79414;SDS011;68864;44.972;19.612;2024-02-28T03:22:37;17.60;;;7.18;;
79414;SDS011;68864;44.972;19.612;2024-02-28T03:25:04;14.63;;;6.75;;
79414;SDS011;68864;44.972;19.612;2024-02-28T03:27:31;12.52;;;6.00;;
79414;SDS011;68864;44.972;19.612;2024-02-28T03:29:58;13.23;;;6.45;;
79414;SDS011;68864;44.972;19.612;2024-02-28T03:32:26;14.63;;;6.20;;
79414;SDS011;68864;44.972;19.612;2024-02-28T03:34:53;19.98;;;5.93;;
79414;SDS011;68864;44.972;19.612;2024-02-28T03:37:20;13.85;;;5.03;;
79414;SDS011;68864;44.972;19.612;2024-02-28T03:39:47;15.88;;;5.65;;
79414;SDS011;68864;44.972;19.612;2024-02-28T03:42:14;19.00;;;6.43;;
79414;SDS011;68864;44.972;19.612;2024-02-28T03:44:41;14.27;;;6.20;;
79414;SDS011;68864;44.972;19.612;2024-02-28T03:47:08;13.38;;;6.22;;
79414;SDS011;68864;44.972;19.612;2024-02-28T03:49:37;12.65;;;6.07;;
79414;SDS011;68864;44.972;19.612;2024-02-28T03:52:04;16.92;;;7.03;;
79414;SDS011;68864;44.972;19.612;2024-02-28T03:54:31;14.88;;;5.65;;
79414;SDS011;68864;44.972;19.612;2024-02-28T03:56:58;15.27;;;7.68;;
79414;SDS011;68864;44.972;19.612;2024-02-28T03:59:25;14.88;;;7.57;;
79414;SDS011;68864;44.972;19.612;2024-02-28T04:01:52;17.55;;;6.55;;
79414;SDS011;68864;44.972;19.612;2024-02-28T04:04:19;15.15;;;6.40;;
79414;SDS011;68864;44.972;19.612;2024-02-28T04:06:47;14.18;;;6.85;;
79414;SDS011;68864;44.972;19.612;2024-02-28T04:09:14;21.98;;;7.15;;
79414;SDS011;68864;44.972;19.612;2024-02-28T04:11:41;21.05;;;6.35;;
79414;SDS011;68864;44.972;19.612;2024-02-28T04:14:08;22.73;;;9.32;;
79414;SDS011;68864;44.972;19.612;2024-02-28T04:16:36;21.77;;;8.32;;
79414;SDS011;68864;44.972;19.612;2024-02-28T04:19:08;18.48;;;8.43;;
79414;SDS011;68864;44.972;19.612;2024-02-28T04:21:35;17.23;;;7.13;;
79414;SDS011;68864;44.972;19.612;2024-02-28T04:24:04;24.88;;;10.48;;
79414;SDS011;68864;44.972;19.612;2024-02-28T04:26:32;16.85;;;7.32;;
79414;SDS011;68864;44.972;19.612;2024-02-28T04:28:59;17.35;;;6.85;;
79414;SDS011;68864;44.972;19.612;2024-02-28T04:31:28;22.67;;;9.07;;
79414;SDS011;68864;44.972;19.612;2024-02-28T04:33:54;21.65;;;8.55;;
79414;SDS011;68864;44.972;19.612;2024-02-28T04:36:22;23.00;;;9.43;;
79414;SDS011;68864;44.972;19.612;2024-02-28T04:38:48;19.05;;;8.75;;
79414;SDS011;68864;44.972;19.612;2024-02-28T04:41:17;15.95;;;6.45;;
79414;SDS011;68864;44.972;19.612;2024-02-28T04:43:44;21.98;;;8.25;;
79414;SDS011;68864;44.972;19.612;2024-02-28T04:46:10;19.48;;;7.22;;
79414;SDS011;68864;44.972;19.612;2024-02-28T04:48:37;20.05;;;7.90;;
79414;SDS011;68864;44.972;19.612;2024-02-28T04:51:04;17.95;;;10.50;;
79414;SDS011;68864;44.972;19.612;2024-02-28T04:53:31;22.52;;;9.18;;
79414;SDS011;68864;44.972;19.612;2024-02-28T04:55:58;24.90;;;9.65;;
79414;SDS011;68864;44.972;19.612;2024-02-28T04:58:27;26.42;;;8.95;;
79414;SDS011;68864;44.972;19.612;2024-02-28T05:00:54;37.08;;;11.13;;
79414;SDS011;68864;44.972;19.612;2024-02-28T05:03:21;31.13;;;11.50;;
79414;SDS011;68864;44.972;19.612;2024-02-28T05:05:50;28.55;;;10.60;;
79414;SDS011;68864;44.972;19.612;2024-02-28T05:08:19;28.25;;;10.40;;
79414;SDS011;68864;44.972;19.612;2024-02-28T05:10:46;33.40;;;10.77;;
79414;SDS011;68864;44.972;19.612;2024-02-28T05:13:13;40.22;;;15.85;;
79414;SDS011;68864;44.972;19.612;2024-02-28T05:15:41;34.60;;;15.32;;
79414;SDS011;68864;44.972;19.612;2024-02-28T05:18:08;32.53;;;12.93;;
79414;SDS011;68864;44.972;19.612;2024-02-28T05:20:35;25.35;;;10.65;;
79414;SDS011;68864;44.972;19.612;2024-02-28T05:23:02;19.65;;;8.30;;
79414;SDS011;68864;44.972;19.612;2024-02-28T05:25:30;20.77;;;8.73;;
79414;SDS011;68864;44.972;19.612;2024-02-28T05:27:56;23.13;;;8.38;;
79414;SDS011;68864;44.972;19.612;2024-02-28T05:30:23;22.08;;;8.02;;
79414;SDS011;68864;44.972;19.612;2024-02-28T05:32:52;18.63;;;8.02;;
79414;SDS011;68864;44.972;19.612;2024-02-28T05:35:18;20.40;;;7.03;;
79414;SDS011;68864;44.972;19.612;2024-02-28T05:37:45;18.63;;;7.45;;
79414;SDS011;68864;44.972;19.612;2024-02-28T05:40:12;19.50;;;7.50;;
79414;SDS011;68864;44.972;19.612;2024-02-28T05:42:39;17.00;;;6.68;;
79414;SDS011;68864;44.972;19.612;2024-02-28T05:45:08;18.35;;;7.22;;
79414;SDS011;68864;44.972;19.612;2024-02-28T05:47:35;15.65;;;7.43;;
79414;SDS011;68864;44.972;19.612;2024-02-28T05:50:04;21.45;;;7.95;;
79414;SDS011;68864;44.972;19.612;2024-02-28T05:52:32;16.98;;;7.07;;
79414;SDS011;68864;44.972;19.612;2024-02-28T05:54:59;16.40;;;7.82;;
79414;SDS011;68864;44.972;19.612;2024-02-28T05:57:26;21.35;;;8.82;;
79414;SDS011;68864;44.972;19.612;2024-02-28T05:59:53;19.55;;;8.65;;
79414;SDS011;68864;44.972;19.612;2024-02-28T06:02:20;19.05;;;8.35;;
79414;SDS011;68864;44.972;19.612;2024-02-28T06:04:47;19.83;;;8.57;;
79414;SDS011;68864;44.972;19.612;2024-02-28T06:07:15;19.63;;;9.27;;
79414;SDS011;68864;44.972;19.612;2024-02-28T06:09:42;19.30;;;8.85;;
79414;SDS011;68864;44.972;19.612;2024-02-28T06:12:09;19.05;;;8.38;;
79414;SDS011;68864;44.972;19.612;2024-02-28T06:14:35;15.10;;;7.47;;
79414;SDS011;68864;44.972;19.612;2024-02-28T06:17:02;19.52;;;7.50;;
79414;SDS011;68864;44.972;19.612;2024-02-28T06:19:29;16.80;;;7.95;;
79414;SDS011;68864;44.972;19.612;2024-02-28T06:21:56;20.95;;;8.07;;
79414;SDS011;68864;44.972;19.612;2024-02-28T06:24:24;19.30;;;8.95;;
79414;SDS011;68864;44.972;19.612;2024-02-28T06:26:51;17.98;;;7.60;;
79414;SDS011;68864;44.972;19.612;2024-02-28T06:29:18;20.90;;;9.05;;
79414;SDS011;68864;44.972;19.612;2024-02-28T06:31:49;17.65;;;8.80;;
79414;SDS011;68864;44.972;19.612;2024-02-28T06:34:16;19.48;;;8.23;;
79414;SDS011;68864;44.972;19.612;2024-02-28T06:36:43;21.00;;;8.80;;
79414;SDS011;68864;44.972;19.612;2024-02-28T06:39:10;18.60;;;7.95;;
79414;SDS011;68864;44.972;19.612;2024-02-28T06:41:39;17.80;;;7.93;;
79414;SDS011;68864;44.972;19.612;2024-02-28T06:44:06;18.65;;;7.82;;
79414;SDS011;68864;44.972;19.612;2024-02-28T06:46:33;16.13;;;6.85;;
79414;SDS011;68864;44.972;19.612;2024-02-28T06:49:00;22.05;;;8.93;;
79414;SDS011;68864;44.972;19.612;2024-02-28T06:51:27;21.80;;;8.52;;
79414;SDS011;68864;44.972;19.612;2024-02-28T06:53:54;22.00;;;8.25;;
79414;SDS011;68864;44.972;19.612;2024-02-28T06:56:21;21.23;;;8.43;;
79414;SDS011;68864;44.972;19.612;2024-02-28T06:58:49;21.60;;;9.15;;
79414;SDS011;68864;44.972;19.612;2024-02-28T07:01:17;26.13;;;10.75;;
79414;SDS011;68864;44.972;19.612;2024-02-28T07:03:44;19.90;;;8.60;;
79414;SDS011;68864;44.972;19.612;2024-02-28T07:06:11;22.17;;;8.70;;
79414;SDS011;68864;44.972;19.612;2024-02-28T07:08:38;22.95;;;9.50;;
79414;SDS011;68864;44.972;19.612;2024-02-28T07:11:05;24.25;;;9.98;;
79414;SDS011;68864;44.972;19.612;2024-02-28T07:13:39;29.42;;;11.02;;
79414;SDS011;68864;44.972;19.612;2024-02-28T07:16:07;30.45;;;11.10;;
79414;SDS011;68864;44.972;19.612;2024-02-28T07:18:34;25.75;;;11.32;;
79414;SDS011;68864;44.972;19.612;2024-02-28T07:21:01;27.63;;;10.77;;
79414;SDS011;68864;44.972;19.612;2024-02-28T07:23:28;24.00;;;10.48;;
79414;SDS011;68864;44.972;19.612;2024-02-28T07:25:55;23.90;;;7.88;;
79414;SDS011;68864;44.972;19.612;2024-02-28T07:28:22;23.02;;;9.45;;
79414;SDS011;68864;44.972;19.612;2024-02-28T07:30:49;18.45;;;7.90;;
79414;SDS011;68864;44.972;19.612;2024-02-28T07:33:17;18.67;;;9.00;;
79414;SDS011;68864;44.972;19.612;2024-02-28T07:35:44;22.38;;;8.07;;
79414;SDS011;68864;44.972;19.612;2024-02-28T07:38:12;21.05;;;9.85;;
79414;SDS011;68864;44.972;19.612;2024-02-28T07:43:05;21.40;;;8.40;;
79414;SDS011;68864;44.972;19.612;2024-02-28T07:45:32;20.67;;;8.65;;
79414;SDS011;68864;44.972;19.612;2024-02-28T07:47:59;20.38;;;9.50;;
79414;SDS011;68864;44.972;19.612;2024-02-28T07:50:28;17.30;;;7.90;;
79414;SDS011;68864;44.972;19.612;2024-02-28T07:52:55;20.70;;;8.00;;
79414;SDS011;68864;44.972;19.612;2024-02-28T07:55:22;18.23;;;7.80;;
79414;SDS011;68864;44.972;19.612;2024-02-28T07:57:50;20.35;;;8.82;;
79414;SDS011;68864;44.972;19.612;2024-02-28T08:00:17;18.55;;;8.43;;
79414;SDS011;68864;44.972;19.612;2024-02-28T08:02:45;19.55;;;8.65;;
79414;SDS011;68864;44.972;19.612;2024-02-28T08:07:41;17.75;;;7.85;;
79414;SDS011;68864;44.972;19.612;2024-02-28T08:10:08;22.42;;;8.23;;
79414;SDS011;68864;44.972;19.612;2024-02-28T08:12:36;19.08;;;8.85;;
79414;SDS011;68864;44.972;19.612;2024-02-28T08:15:04;16.70;;;8.77;;
79414;SDS011;68864;44.972;19.612;2024-02-28T08:17:31;19.10;;;8.50;;
79414;SDS011;68864;44.972;19.612;2024-02-28T08:19:58;19.42;;;8.93;;
79414;SDS011;68864;44.972;19.612;2024-02-28T08:22:25;16.50;;;8.20;;
79414;SDS011;68864;44.972;19.612;2024-02-28T08:24:54;15.60;;;8.10;;
79414;SDS011;68864;44.972;19.612;2024-02-28T08:27:21;14.93;;;7.53;;
79414;SDS011;68864;44.972;19.612;2024-02-28T08:29:48;20.33;;;9.43;;
79414;SDS011;68864;44.972;19.612;2024-02-28T08:32:15;22.25;;;8.75;;
79414;SDS011;68864;44.972;19.612;2024-02-28T08:34:43;17.13;;;9.10;;
79414;SDS011;68864;44.972;19.612;2024-02-28T08:37:11;18.42;;;8.48;;
79414;SDS011;68864;44.972;19.612;2024-02-28T08:39:38;21.20;;;9.77;;
79414;SDS011;68864;44.972;19.612;2024-02-28T08:42:06;21.65;;;12.52;;
79414;SDS011;68864;44.972;19.612;2024-02-28T08:44:33;24.80;;;10.85;;
79414;SDS011;68864;44.972;19.612;2024-02-28T08:47:00;22.20;;;10.75;;
79414;SDS011;68864;44.972;19.612;2024-02-28T08:49:27;18.35;;;9.15;;
79414;SDS011;68864;44.972;19.612;2024-02-28T08:51:56;24.58;;;9.60;;
79414;SDS011;68864;44.972;19.612;2024-02-28T08:54:22;23.23;;;10.30;;
79414;SDS011;68864;44.972;19.612;2024-02-28T08:56:51;31.58;;;11.85;;
79414;SDS011;68864;44.972;19.612;2024-02-28T08:59:19;29.45;;;12.23;;
79414;SDS011;68864;44.972;19.612;2024-02-28T09:01:47;22.98;;;10.32;;
79414;SDS011;68864;44.972;19.612;2024-02-28T09:04:14;21.17;;;9.35;;
79414;SDS011;68864;44.972;19.612;2024-02-28T09:06:40;26.95;;;9.82;;
79414;SDS011;68864;44.972;19.612;2024-02-28T09:09:07;25.45;;;10.55;;
79414;SDS011;68864;44.972;19.612;2024-02-28T09:11:35;22.27;;;9.70;;
79414;SDS011;68864;44.972;19.612;2024-02-28T09:14:02;24.65;;;10.10;;
79414;SDS011;68864;44.972;19.612;2024-02-28T09:16:30;18.58;;;9.43;;
79414;SDS011;68864;44.972;19.612;2024-02-28T09:18:57;20.40;;;8.32;;
79414;SDS011;68864;44.972;19.612;2024-02-28T09:21:24;26.80;;;9.55;;
79414;SDS011;68864;44.972;19.612;2024-02-28T09:23:51;23.05;;;9.55;;
79414;SDS011;68864;44.972;19.612;2024-02-28T09:26:18;18.75;;;9.15;;
79414;SDS011;68864;44.972;19.612;2024-02-28T09:28:45;21.27;;;9.45;;
79414;SDS011;68864;44.972;19.612;2024-02-28T09:31:12;20.33;;;7.28;;
79414;SDS011;68864;44.972;19.612;2024-02-28T09:33:42;18.33;;;7.65;;
79414;SDS011;68864;44.972;19.612;2024-02-28T09:36:11;16.42;;;7.03;;
79414;SDS011;68864;44.972;19.612;2024-02-28T09:41:06;15.10;;;7.82;;
79414;SDS011;68864;44.972;19.612;2024-02-28T09:43:35;14.15;;;6.75;;
79414;SDS011;68864;44.972;19.612;2024-02-28T09:46:08;16.05;;;7.47;;
79414;SDS011;68864;44.972;19.612;2024-02-28T09:48:38;19.10;;;7.28;;
79414;SDS011;68864;44.972;19.612;2024-02-28T09:51:07;17.10;;;7.60;;
79414;SDS011;68864;44.972;19.612;2024-02-28T09:53:36;18.33;;;7.18;;
79414;SDS011;68864;44.972;19.612;2024-02-28T09:56:03;18.60;;;5.93;;
79414;SDS011;68864;44.972;19.612;2024-02-28T09:58:32;14.63;;;7.15;;
79414;SDS011;68864;44.972;19.612;2024-02-28T10:01:01;15.05;;;7.05;;
79414;SDS011;68864;44.972;19.612;2024-02-28T10:03:29;12.38;;;5.18;;
79414;SDS011;68864;44.972;19.612;2024-02-28T10:05:57;14.10;;;5.57;;
79414;SDS011;68864;44.972;19.612;2024-02-28T10:08:25;14.13;;;5.65;;
79414;SDS011;68864;44.972;19.612;2024-02-28T10:10:54;12.18;;;5.00;;
79414;SDS011;68864;44.972;19.612;2024-02-28T10:13:22;16.15;;;5.05;;
79414;SDS011;68864;44.972;19.612;2024-02-28T10:15:49;14.88;;;5.57;;
79414;SDS011;68864;44.972;19.612;2024-02-28T10:18:16;16.02;;;6.10;;
79414;SDS011;68864;44.972;19.612;2024-02-28T10:20:43;13.43;;;5.30;;
79414;SDS011;68864;44.972;19.612;2024-02-28T10:23:10;12.70;;;5.30;;
79414;SDS011;68864;44.972;19.612;2024-02-28T10:25:45;14.02;;;5.07;;
79414;SDS011;68864;44.972;19.612;2024-02-28T10:28:13;14.48;;;6.75;;
79414;SDS011;68864;44.972;19.612;2024-02-28T10:30:41;15.50;;;7.20;;
79414;SDS011;68864;44.972;19.612;2024-02-28T10:33:11;16.13;;;6.22;;
79414;SDS011;68864;44.972;19.612;2024-02-28T10:35:39;14.32;;;5.55;;
79414;SDS011;68864;44.972;19.612;2024-02-28T10:38:07;17.80;;;4.78;;
79414;SDS011;68864;44.972;19.612;2024-02-28T10:40:36;10.95;;;4.82;;
79414;SDS011;68864;44.972;19.612;2024-02-28T10:45:34;17.20;;;5.13;;
79414;SDS011;68864;44.972;19.612;2024-02-28T10:48:03;15.77;;;5.90;;
79414;SDS011;68864;44.972;19.612;2024-02-28T10:50:31;12.40;;;3.88;;
79414;SDS011;68864;44.972;19.612;2024-02-28T10:53:00;12.40;;;5.13;;
79414;SDS011;68864;44.972;19.612;2024-02-28T10:55:31;12.88;;;5.35;;
79414;SDS011;68864;44.972;19.612;2024-02-28T10:58:01;12.13;;;4.25;;
79414;SDS011;68864;44.972;19.612;2024-02-28T11:00:30;13.18;;;5.30;;
79414;SDS011;68864;44.972;19.612;2024-02-28T11:02:58;12.77;;;4.65;;
79414;SDS011;68864;44.972;19.612;2024-02-28T11:05:35;14.45;;;4.53;;
79414;SDS011;68864;44.972;19.612;2024-02-28T11:08:03;11.38;;;4.38;;
79414;SDS011;68864;44.972;19.612;2024-02-28T11:10:31;14.93;;;5.70;;
79414;SDS011;68864;44.972;19.612;2024-02-28T11:12:59;10.10;;;3.92;;
79414;SDS011;68864;44.972;19.612;2024-02-28T11:15:26;13.48;;;4.00;;
79414;SDS011;68864;44.972;19.612;2024-02-28T11:17:55;15.95;;;4.40;;
79414;SDS011;68864;44.972;19.612;2024-02-28T11:20:34;10.52;;;3.67;;
79414;SDS011;68864;44.972;19.612;2024-02-28T11:23:01;15.70;;;5.25;;
79414;SDS011;68864;44.972;19.612;2024-02-28T11:27:54;12.90;;;2.80;;
79414;SDS011;68864;44.972;19.612;2024-02-28T11:32:51;9.10;;;4.00;;
79414;SDS011;68864;44.972;19.612;2024-02-28T11:35:21;13.35;;;4.10;;
79414;SDS011;68864;44.972;19.612;2024-02-28T11:37:48;12.77;;;4.90;;
79414;SDS011;68864;44.972;19.612;2024-02-28T11:40:16;11.07;;;3.75;;
79414;SDS011;68864;44.972;19.612;2024-02-28T11:42:43;10.20;;;2.90;;
79414;SDS011;68864;44.972;19.612;2024-02-28T11:45:10;15.10;;;4.28;;
79414;SDS011;68864;44.972;19.612;2024-02-28T11:47:37;16.45;;;4.47;;
79414;SDS011;68864;44.972;19.612;2024-02-28T11:50:04;11.93;;;4.50;;
79414;SDS011;68864;44.972;19.612;2024-02-28T11:52:34;9.95;;;3.38;;
79414;SDS011;68864;44.972;19.612;2024-02-28T11:55:01;13.23;;;4.80;;
79414;SDS011;68864;44.972;19.612;2024-02-28T11:57:28;13.98;;;5.03;;
79414;SDS011;68864;44.972;19.612;2024-02-28T12:00:01;9.10;;;2.78;;
79414;SDS011;68864;44.972;19.612;2024-02-28T12:02:29;14.25;;;3.53;;
79414;SDS011;68864;44.972;19.612;2024-02-28T12:05:00;14.50;;;4.05;;
79414;SDS011;68864;44.972;19.612;2024-02-28T12:07:27;13.63;;;4.07;;
79414;SDS011;68864;44.972;19.612;2024-02-28T12:09:55;13.38;;;3.63;;
79414;SDS011;68864;44.972;19.612;2024-02-28T12:12:23;11.25;;;3.25;;
79414;SDS011;68864;44.972;19.612;2024-02-28T12:14:50;10.00;;;4.15;;
79414;SDS011;68864;44.972;19.612;2024-02-28T12:17:17;12.52;;;4.00;;
79414;SDS011;68864;44.972;19.612;2024-02-28T12:19:45;13.48;;;3.55;;
79414;SDS011;68864;44.972;19.612;2024-02-28T12:24:39;14.70;;;3.75;;
79414;SDS011;68864;44.972;19.612;2024-02-28T12:27:07;11.63;;;4.18;;
79414;SDS011;68864;44.972;19.612;2024-02-28T12:29:34;13.70;;;3.95;;
79414;SDS011;68864;44.972;19.612;2024-02-28T12:32:01;12.75;;;3.80;;
79414;SDS011;68864;44.972;19.612;2024-02-28T12:34:28;16.08;;;3.63;;
79414;SDS011;68864;44.972;19.612;2024-02-28T12:36:55;12.32;;;2.63;;
79414;SDS011;68864;44.972;19.612;2024-02-28T12:39:22;9.20;;;3.65;;
79414;SDS011;68864;44.972;19.612;2024-02-28T12:41:49;12.48;;;3.05;;
79414;SDS011;68864;44.972;19.612;2024-02-28T12:46:44;12.80;;;4.30;;
79414;SDS011;68864;44.972;19.612;2024-02-28T12:49:11;8.70;;;2.53;;
79414;SDS011;68864;44.972;19.612;2024-02-28T12:51:39;15.30;;;4.47;;
79414;SDS011;68864;44.972;19.612;2024-02-28T12:54:08;11.82;;;3.78;;
79414;SDS011;68864;44.972;19.612;2024-02-28T12:56:36;12.27;;;3.72;;
79414;SDS011;68864;44.972;19.612;2024-02-28T12:59:03;14.48;;;3.90;;
79414;SDS011;68864;44.972;19.612;2024-02-28T13:01:33;11.18;;;4.30;;
79414;SDS011;68864;44.972;19.612;2024-02-28T13:04:00;15.55;;;5.40;;
79414;SDS011;68864;44.972;19.612;2024-02-28T13:06:27;19.23;;;5.47;;
79414;SDS011;68864;44.972;19.612;2024-02-28T13:11:22;16.70;;;3.92;;
79414;SDS011;68864;44.972;19.612;2024-02-28T13:13:51;10.00;;;3.55;;
79414;SDS011;68864;44.972;19.612;2024-02-28T13:16:20;19.05;;;4.80;;
79414;SDS011;68864;44.972;19.612;2024-02-28T13:18:49;18.90;;;4.15;;
79414;SDS011;68864;44.972;19.612;2024-02-28T13:21:16;11.50;;;4.68;;
79414;SDS011;68864;44.972;19.612;2024-02-28T13:23:43;12.00;;;2.95;;
79414;SDS011;68864;44.972;19.612;2024-02-28T13:26:10;14.18;;;4.05;;
79414;SDS011;68864;44.972;19.612;2024-02-28T13:28:42;11.93;;;4.05;;
79414;SDS011;68864;44.972;19.612;2024-02-28T13:33:36;15.20;;;4.57;;
79414;SDS011;68864;44.972;19.612;2024-02-28T13:36:05;10.25;;;3.75;;
79414;SDS011;68864;44.972;19.612;2024-02-28T13:38:33;13.50;;;3.22;;
79414;SDS011;68864;44.972;19.612;2024-02-28T13:41:00;10.35;;;3.17;;
79414;SDS011;68864;44.972;19.612;2024-02-28T13:43:27;12.32;;;4.35;;
79414;SDS011;68864;44.972;19.612;2024-02-28T13:45:54;10.85;;;3.45;;
79414;SDS011;68864;44.972;19.612;2024-02-28T13:48:25;10.85;;;2.88;;
79414;SDS011;68864;44.972;19.612;2024-02-28T13:50:54;10.85;;;4.05;;
79414;SDS011;68864;44.972;19.612;2024-02-28T13:53:22;10.70;;;3.92;;
79414;SDS011;68864;44.972;19.612;2024-02-28T13:55:50;11.10;;;3.78;;
79414;SDS011;68864;44.972;19.612;2024-02-28T13:58:17;11.80;;;3.35;;
79414;SDS011;68864;44.972;19.612;2024-02-28T14:00:44;10.13;;;3.38;;
79414;SDS011;68864;44.972;19.612;2024-02-28T14:03:12;16.65;;;6.28;;
79414;SDS011;68864;44.972;19.612;2024-02-28T14:05:39;14.93;;;4.93;;
79414;SDS011;68864;44.972;19.612;2024-02-28T14:10:35;14.25;;;4.82;;
79414;SDS011;68864;44.972;19.612;2024-02-28T14:13:02;12.02;;;4.18;;
79414;SDS011;68864;44.972;19.612;2024-02-28T14:15:29;11.65;;;4.28;;
79414;SDS011;68864;44.972;19.612;2024-02-28T14:20:23;18.67;;;6.00;;
79414;SDS011;68864;44.972;19.612;2024-02-28T14:25:17;13.25;;;3.92;;
79414;SDS011;68864;44.972;19.612;2024-02-28T14:27:46;16.58;;;4.38;;
79414;SDS011;68864;44.972;19.612;2024-02-28T14:30:14;13.48;;;4.50;;
79414;SDS011;68864;44.972;19.612;2024-02-28T14:32:42;13.13;;;5.45;;
79414;SDS011;68864;44.972;19.612;2024-02-28T14:35:10;20.98;;;6.45;;
79414;SDS011;68864;44.972;19.612;2024-02-28T14:37:37;19.67;;;6.32;;
79414;SDS011;68864;44.972;19.612;2024-02-28T14:40:06;17.98;;;6.90;;
79414;SDS011;68864;44.972;19.612;2024-02-28T14:42:36;12.98;;;5.32;;
79414;SDS011;68864;44.972;19.612;2024-02-28T14:47:32;13.75;;;5.53;;
79414;SDS011;68864;44.972;19.612;2024-02-28T14:52:25;11.63;;;5.43;;
79414;SDS011;68864;44.972;19.612;2024-02-28T14:54:52;16.50;;;6.78;;
79414;SDS011;68864;44.972;19.612;2024-02-28T14:59:46;18.98;;;6.70;;
79414;SDS011;68864;44.972;19.612;2024-02-28T15:02:14;20.95;;;5.20;;
79414;SDS011;68864;44.972;19.612;2024-02-28T15:04:41;13.23;;;5.18;;
79414;SDS011;68864;44.972;19.612;2024-02-28T15:09:35;19.27;;;7.85;;